TimeEDT,TemperatureF,Dew PointF,Humidity,Sea Level PressureIn,VisibilityMPH,Wind Direction,Wind SpeedMPH,Gust SpeedMPH,PrecipitationIn,Events,Conditions,WindDirDegrees,DateUTC
12:52 AM,57.9,50.0,75,30.21,10.0,ENE,4.6,-,N/A,,Clear,60,2013-05-02 04:52:00
1:52 AM,57.9,50.0,75,30.21,10.0,ENE,3.5,-,N/A,,Clear,60,2013-05-02 05:52:00
2:52 AM,55.9,50.0,80,30.20,10.0,ENE,4.6,-,N/A,,Clear,60,2013-05-02 06:52:00
3:52 AM,55.0,48.9,80,30.19,10.0,ENE,4.6,-,N/A,,Clear,60,2013-05-02 07:52:00
4:52 AM,54.0,48.9,83,30.19,10.0,ENE,3.5,-,N/A,,Clear,70,2013-05-02 08:52:00
5:52 AM,54.0,48.9,83,30.19,10.0,ENE,3.5,-,N/A,,Clear,70,2013-05-02 09:52:00
6:52 AM,53.1,48.9,86,30.21,10.0,East,3.5,-,N/A,,Clear,100,2013-05-02 10:52:00
7:52 AM,57.9,50.0,75,30.22,10.0,SE,3.5,-,N/A,,Clear,130,2013-05-02 11:52:00
8:52 AM,64.0,51.1,63,30.23,10.0,SSE,5.8,-,N/A,,Clear,150,2013-05-02 12:52:00
9:52 AM,68.0,51.1,55,30.24,10.0,South,9.2,19.6,N/A,,Clear,190,2013-05-02 13:52:00
10:52 AM,71.1,50.0,47,30.24,10.0,South,10.4,17.3,N/A,,Mostly Cloudy,170,2013-05-02 14:52:00
11:52 AM,73.9,50.0,43,30.23,10.0,South,9.2,-,N/A,,Scattered Clouds,190,2013-05-02 15:52:00
12:52 PM,75.0,50.0,41,30.21,10.0,South,8.1,-,N/A,,Scattered Clouds,180,2013-05-02 16:52:00
1:52 PM,77.0,48.9,37,30.19,10.0,Variable,6.9,-,N/A,,Clear,0,2013-05-02 17:52:00
2:52 PM,78.1,48.0,35,30.18,10.0,ESE,13.8,18.4,N/A,,Clear,110,2013-05-02 18:52:00
3:52 PM,78.1,46.9,33,30.16,10.0,SSE,9.2,-,N/A,,Clear,150,2013-05-02 19:52:00
4:52 PM,78.1,45.0,31,30.15,10.0,SSE,12.7,18.4,N/A,,Partly Cloudy,160,2013-05-02 20:52:00
5:52 PM,75.0,48.9,40,30.14,10.0,East,16.1,24.2,N/A,,Mostly Cloudy,90,2013-05-02 21:52:00
6:52 PM,72.0,48.0,43,30.14,10.0,East,16.1,21.9,N/A,,Mostly Cloudy,100,2013-05-02 22:52:00
7:52 PM,66.9,46.0,47,30.14,10.0,East,11.5,-,N/A,,Partly Cloudy,90,2013-05-02 23:52:00
8:52 PM,64.0,44.1,48,30.14,10.0,East,5.8,-,N/A,,Clear,80,2013-05-03 00:52:00
9:52 PM,61.0,44.1,54,30.14,10.0,East,5.8,-,N/A,,Partly Cloudy,80,2013-05-03 01:52:00
10:52 PM,59.0,44.1,58,30.13,10.0,East,4.6,-,N/A,,Clear,100,2013-05-03 02:52:00
11:52 PM,57.0,45.0,64,30.13,10.0,East,3.5,-,N/A,,Clear,90,2013-05-03 03:52:00